Time,TemperatureF,DewpointF,PressureIn,WindDirection,WindDirectionDegrees,WindSpeedMPH,WindSpeedGustMPH,Humidity,HourlyPrecipIn,Conditions,Clouds,dailyrainin,SoftwareType,DateUTC
2013-03-15 00:02:00,55.9,55.6,30.07,NW,315,3.0,6.0,99,0.00,,,0.00,meteohub,2013-03-15 07:02:00,
2013-03-15 00:07:00,55.8,55.4,30.07,NW,315,6.0,6.0,99,0.00,,,0.00,meteohub,2013-03-15 07:07:00,
2013-03-15 00:12:00,55.8,55.4,30.07,NW,315,7.0,7.0,99,0.00,,,0.00,meteohub,2013-03-15 07:12:00,
2013-03-15 00:17:00,55.9,55.6,30.07,NW,315,7.0,7.0,99,0.00,,,0.00,meteohub,2013-03-15 07:17:00,
2013-03-15 00:22:00,55.8,55.4,30.06,NW,315,6.0,8.0,99,0.00,,,0.00,meteohub,2013-03-15 07:22:00,
2013-03-15 00:27:00,55.6,55.2,30.06,NW,315,7.0,8.0,99,0.00,,,0.00,meteohub,2013-03-15 07:27:00,
2013-03-15 00:32:00,55.6,55.2,30.07,NW,315,4.0,8.0,99,0.00,,,0.00,meteohub,2013-03-15 07:32:00,
2013-03-15 00:37:00,55.6,55.2,30.06,West,270,3.0,8.0,99,0.00,,,0.00,meteohub,2013-03-15 07:37:00,
2013-03-15 00:42:00,55.6,55.2,30.06,West,270,6.0,7.0,99,0.00,,,0.00,meteohub,2013-03-15 07:42:00,
2013-03-15 00:47:00,55.4,55.0,30.06,NW,315,2.0,6.0,99,0.00,,,0.00,meteohub,2013-03-15 07:47:00,
2013-03-15 00:52:00,55.4,55.0,30.07,NW,315,1.0,6.0,99,0.00,,,0.00,meteohub,2013-03-15 07:52:00,
2013-03-15 00:57:00,55.2,54.9,30.07,West,270,4.0,6.0,99,0.00,,,0.00,meteohub,2013-03-15 07:57:00,
2013-03-15 01:02:00,55.4,55.0,30.07,West,270,2.0,4.0,99,0.00,,,0.00,meteohub,2013-03-15 08:02:00,
2013-03-15 01:07:00,55.4,55.0,30.06,West,270,1.0,4.0,99,0.00,,,0.00,meteohub,2013-03-15 08:07:00,
2013-03-15 01:12:00,55.4,55.0,30.07,West,270,2.0,4.0,99,0.00,,,0.00,meteohub,2013-03-15 08:12:00,
2013-03-15 01:17:00,55.6,55.2,30.07,West,270,0.0,4.0,99,0.00,,,0.00,meteohub,2013-03-15 08:17:00,
2013-03-15 01:22:00,55.6,55.2,30.06,West,270,0.0,2.0,99,0.00,,,0.00,meteohub,2013-03-15 08:22:00,
2013-03-15 01:27:00,55.6,55.2,30.07,North,0,4.0,4.0,99,0.00,,,0.00,meteohub,2013-03-15 08:27:00,
2013-03-15 01:32:00,55.6,55.2,30.06,NNE,23,4.0,4.0,99,0.00,,,0.00,meteohub,2013-03-15 08:32:00,
2013-03-15 01:37:00,55.6,55.2,30.06,North,0,2.0,4.0,99,0.00,,,0.00,meteohub,2013-03-15 08:37:00,
2013-03-15 01:42:00,55.6,55.2,30.06,North,0,0.0,4.0,99,0.00,,,0.00,meteohub,2013-03-15 08:42:00,
2013-03-15 01:47:00,55.6,55.2,30.06,North,0,0.0,4.0,99,0.00,,,0.00,meteohub,2013-03-15 08:47:00,
2013-03-15 01:51:00,55.8,55.4,30.06,North,0,0.0,4.0,99,0.00,,,0.00,meteohub,2013-03-15 08:51:00,
2013-03-15 01:57:00,55.8,55.4,30.06,North,0,2.0,2.0,99,0.00,,,0.00,meteohub,2013-03-15 08:57:00,
2013-03-15 02:02:00,55.8,55.4,30.06,North,0,4.0,4.0,99,0.00,,,0.00,meteohub,2013-03-15 09:02:00,
2013-03-15 02:07:00,55.8,55.4,30.06,North,0,2.0,4.0,99,0.00,,,0.00,meteohub,2013-03-15 09:07:00,
2013-03-15 02:12:00,55.4,55.0,30.06,North,0,4.0,4.0,99,0.00,,,0.00,meteohub,2013-03-15 09:12:00,
2013-03-15 02:17:00,55.2,54.9,30.06,NE,45,3.0,5.0,99,0.00,,,0.00,meteohub,2013-03-15 09:17:00,
2013-03-15 02:22:00,55.2,54.9,30.05,NE,45,2.0,5.0,99,0.00,,,0.00,meteohub,2013-03-15 09:22:00,
2013-03-15 02:27:00,55.0,54.7,30.05,NE,45,2.0,5.0,99,0.00,,,0.00,meteohub,2013-03-15 09:27:00,
2013-03-15 02:32:00,55.0,54.7,30.05,NE,45,3.0,4.0,99,0.00,,,0.00,meteohub,2013-03-15 09:32:00,
2013-03-15 02:37:00,55.0,54.7,30.05,NE,45,2.0,4.0,99,0.00,,,0.00,meteohub,2013-03-15 09:37:00,
2013-03-15 02:42:00,55.0,54.7,30.05,NE,45,2.0,4.0,99,0.00,,,0.00,meteohub,2013-03-15 09:42:00,
2013-03-15 02:47:00,55.0,54.7,30.05,NE,45,0.0,4.0,99,0.00,,,0.00,meteohub,2013-03-15 09:47:00,
2013-03-15 02:52:00,55.0,54.7,30.05,SE,135,4.0,4.0,99,0.00,,,0.00,meteohub,2013-03-15 09:52:00,
2013-03-15 02:57:00,55.0,54.7,30.04,East,90,2.0,4.0,99,0.00,,,0.00,meteohub,2013-03-15 09:57:00,
2013-03-15 03:02:00,55.0,54.7,30.04,SE,135,2.0,4.0,99,0.00,,,0.00,meteohub,2013-03-15 10:02:00,
2013-03-15 03:07:00,54.9,54.5,30.04,South,180,2.0,4.0,99,0.00,,,0.00,meteohub,2013-03-15 10:07:00,
2013-03-15 03:12:00,54.9,54.5,30.03,South,180,0.0,4.0,99,0.00,,,0.00,meteohub,2013-03-15 10:12:00,
2013-03-15 03:17:00,54.9,54.5,30.03,South,180,2.0,4.0,99,0.00,,,0.00,meteohub,2013-03-15 10:17:00,
2013-03-15 03:22:00,54.9,54.5,30.03,South,180,2.0,3.0,99,0.00,,,0.00,meteohub,2013-03-15 10:22:00,
2013-03-15 03:27:00,54.9,54.5,30.04,South,180,0.0,2.0,99,0.00,,,0.00,meteohub,2013-03-15 10:27:00,
2013-03-15 03:32:00,54.9,54.5,30.03,NE,45,1.0,2.0,99,0.00,,,0.00,meteohub,2013-03-15 10:32:00,
2013-03-15 03:37:00,54.9,54.5,30.03,SE,135,3.0,3.0,99,0.00,,,0.00,meteohub,2013-03-15 10:37:00,
2013-03-15 03:42:00,54.9,54.5,30.02,East,90,2.0,4.0,99,0.00,,,0.00,meteohub,2013-03-15 10:42:00,
2013-03-15 03:47:00,54.9,54.5,30.02,East,90,2.0,4.0,99,0.00,,,0.00,meteohub,2013-03-15 10:47:00,
2013-03-15 03:52:00,54.9,54.5,30.02,East,90,1.0,4.0,99,0.00,,,0.00,meteohub,2013-03-15 10:52:00,
2013-03-15 03:57:00,54.9,54.5,30.02,East,90,1.0,4.0,99,0.00,,,0.00,meteohub,2013-03-15 10:57:00,
2013-03-15 04:02:00,54.9,54.5,30.02,East,90,1.0,3.0,99,0.00,,,0.00,meteohub,2013-03-15 11:02:00,
2013-03-15 04:07:00,54.9,54.5,30.02,SE,135,3.0,3.0,99,0.00,,,0.00,meteohub,2013-03-15 11:07:00,
2013-03-15 04:12:00,54.9,54.5,30.02,East,90,2.0,3.0,99,0.00,,,0.00,meteohub,2013-03-15 11:12:00,
2013-03-15 04:17:00,54.7,54.3,30.02,East,90,2.0,3.0,99,0.00,,,0.00,meteohub,2013-03-15 11:17:00,
2013-03-15 04:22:00,54.7,54.3,30.03,East,90,3.0,4.0,99,0.00,,,0.00,meteohub,2013-03-15 11:22:00,
2013-03-15 04:27:00,54.7,54.3,30.04,NNE,23,2.0,4.0,99,0.00,,,0.00,meteohub,2013-03-15 11:27:00,
2013-03-15 04:32:00,54.7,54.3,30.03,NNE,23,0.0,4.0,99,0.00,,,0.00,meteohub,2013-03-15 11:32:00,
2013-03-15 04:37:00,54.7,54.3,30.03,NNE,23,2.0,4.0,99,0.00,,,0.00,meteohub,2013-03-15 11:37:00,
2013-03-15 04:42:00,54.7,54.3,30.03,NNE,23,2.0,4.0,99,0.00,,,0.00,meteohub,2013-03-15 11:42:00,
2013-03-15 04:47:00,54.9,54.5,30.04,North,0,4.0,4.0,99,0.00,,,0.00,meteohub,2013-03-15 11:47:00,
2013-03-15 04:52:00,54.9,54.5,30.03,NE,45,1.0,4.0,99,0.00,,,0.00,meteohub,2013-03-15 11:52:00,
2013-03-15 04:57:00,54.7,54.3,30.03,NE,45,0.0,4.0,99,0.00,,,0.00,meteohub,2013-03-15 11:57:00,
2013-03-15 05:02:00,54.7,54.3,30.03,NE,45,2.0,4.0,99,0.00,,,0.00,meteohub,2013-03-15 12:02:00,
2013-03-15 05:08:00,54.7,54.3,30.03,SE,135,2.0,4.0,99,0.00,,,0.00,meteohub,2013-03-15 12:08:00,
2013-03-15 05:13:00,54.7,54.3,30.03,ESE,113,4.0,4.0,99,0.00,,,0.00,meteohub,2013-03-15 12:13:00,
2013-03-15 05:18:00,54.5,54.1,30.03,SE,135,0.0,4.0,99,0.00,,,0.00,meteohub,2013-03-15 12:18:00,
2013-03-15 05:23:00,54.5,54.1,30.03,SE,135,3.0,4.0,99,0.00,,,0.00,meteohub,2013-03-15 12:23:00,
2013-03-15 05:28:00,54.5,54.1,30.03,SE,135,2.0,4.0,99,0.00,,,0.00,meteohub,2013-03-15 12:28:00,
2013-03-15 05:33:00,54.5,54.1,30.03,SE,135,0.0,3.0,99,0.00,,,0.00,meteohub,2013-03-15 12:33:00,
2013-03-15 05:38:00,54.1,53.8,30.03,East,90,1.0,3.0,99,0.00,,,0.00,meteohub,2013-03-15 12:38:00,
2013-03-15 05:43:00,54.5,54.1,30.03,SE,135,2.0,2.0,99,0.00,,,0.00,meteohub,2013-03-15 12:43:00,
2013-03-15 05:48:00,54.1,53.8,30.03,SE,135,2.0,4.0,99,0.00,,,0.00,meteohub,2013-03-15 12:48:00,
2013-03-15 05:53:00,54.3,54.0,30.03,SE,135,2.0,4.0,99,0.00,,,0.00,meteohub,2013-03-15 12:53:00,
2013-03-15 05:58:00,54.3,54.0,30.03,East,90,2.0,4.0,99,0.00,,,0.00,meteohub,2013-03-15 12:58:00,
2013-03-15 06:03:00,54.1,53.8,30.03,East,90,2.0,4.0,99,0.00,,,0.00,meteohub,2013-03-15 13:03:00,
2013-03-15 06:08:00,54.3,54.0,30.03,East,90,2.0,4.0,99,0.00,,,0.00,meteohub,2013-03-15 13:08:00,
2013-03-15 06:13:00,54.3,54.0,30.03,East,90,6.0,6.0,99,0.00,,,0.00,meteohub,2013-03-15 13:13:00,
2013-03-15 06:18:00,54.1,53.8,30.03,East,90,3.0,6.0,99,0.00,,,0.00,meteohub,2013-03-15 13:18:00,
2013-03-15 06:23:00,54.3,54.0,30.03,NE,45,2.0,6.0,99,0.00,,,0.00,meteohub,2013-03-15 13:23:00,
2013-03-15 06:28:00,54.5,54.1,30.03,East,90,5.0,6.0,99,0.00,,,0.00,meteohub,2013-03-15 13:28:00,
2013-03-15 06:33:00,54.5,54.1,30.03,SE,135,2.0,5.0,99,0.00,,,0.00,meteohub,2013-03-15 13:33:00,
2013-03-15 06:38:00,54.7,54.3,30.04,SE,135,2.0,5.0,99,0.00,,,0.00,meteohub,2013-03-15 13:38:00,
2013-03-15 06:43:00,54.7,54.3,30.03,SE,135,2.0,5.0,99,0.00,,,0.00,meteohub,2013-03-15 13:43:00,
2013-03-15 06:48:00,54.7,54.3,30.04,NW,315,2.0,4.0,99,0.00,,,0.00,meteohub,2013-03-15 13:48:00,
2013-03-15 06:53:00,54.7,54.3,30.03,South,180,2.0,4.0,99,0.00,,,0.00,meteohub,2013-03-15 13:53:00,
2013-03-15 06:58:00,54.9,54.5,30.03,SSE,158,2.0,3.0,99,0.00,,,0.00,meteohub,2013-03-15 13:58:00,
2013-03-15 07:03:00,54.9,54.5,30.04,SSE,158,4.0,4.0,99,0.00,,,0.00,meteohub,2013-03-15 14:03:00,
2013-03-15 07:08:00,55.0,54.7,30.04,SE,135,2.0,5.0,99,0.00,,,0.00,meteohub,2013-03-15 14:08:00,
2013-03-15 07:13:00,55.0,54.7,30.04,West,270,0.0,5.0,99,0.00,,,0.00,meteohub,2013-03-15 14:13:00,
2013-03-15 07:18:00,55.0,54.7,30.03,SSE,158,3.0,5.0,99,0.00,,,0.00,meteohub,2013-03-15 14:18:00,
2013-03-15 07:23:00,54.9,54.5,30.04,South,180,1.0,4.0,99,0.00,,,0.00,meteohub,2013-03-15 14:23:00,
2013-03-15 07:28:00,54.9,54.5,30.03,SE,135,4.0,4.0,99,0.00,,,0.00,meteohub,2013-03-15 14:28:00,
2013-03-15 07:33:00,54.9,54.5,30.03,SE,135,2.0,4.0,99,0.00,,,0.00,meteohub,2013-03-15 14:33:00,
2013-03-15 07:38:00,55.0,54.7,30.03,SE,135,2.0,4.0,99,0.00,,,0.00,meteohub,2013-03-15 14:38:00,
2013-03-15 07:43:00,55.2,54.9,30.03,South,180,3.0,4.0,99,0.00,,,0.00,meteohub,2013-03-15 14:43:00,
2013-03-15 07:48:00,55.4,55.0,30.02,SW,225,2.0,4.0,99,0.00,,,0.00,meteohub,2013-03-15 14:48:00,
2013-03-15 07:53:00,55.6,55.2,30.03,South,180,0.0,3.0,99,0.00,,,0.00,meteohub,2013-03-15 14:53:00,
2013-03-15 07:58:00,55.9,55.6,30.03,SSE,158,3.0,3.0,99,0.00,,,0.00,meteohub,2013-03-15 14:58:00,
2013-03-15 08:03:00,56.1,55.8,30.03,SE,135,3.0,3.0,99,0.00,,,0.00,meteohub,2013-03-15 15:03:00,
2013-03-15 08:08:00,56.5,56.1,30.03,SE,135,2.0,4.0,99,0.00,,,0.00,meteohub,2013-03-15 15:08:00,
2013-03-15 08:13:00,56.8,56.5,30.04,SE,135,2.0,4.0,99,0.00,,,0.00,meteohub,2013-03-15 15:13:00,
2013-03-15 08:18:00,57.2,56.8,30.04,SE,135,1.0,4.0,99,0.00,,,0.00,meteohub,2013-03-15 15:18:00,
2013-03-15 08:23:00,57.6,56.7,30.04,NE,45,2.0,4.0,97,0.00,,,0.00,meteohub,2013-03-15 15:23:00,
2013-03-15 08:29:00,57.6,56.7,30.05,NE,45,2.0,3.0,97,0.00,,,0.00,meteohub,2013-03-15 15:29:00,
2013-03-15 08:34:00,57.6,56.5,30.05,NNE,23,4.0,4.0,96,0.00,,,0.00,meteohub,2013-03-15 15:34:00,
2013-03-15 08:39:00,57.4,56.3,30.04,WNW,293,1.0,4.0,96,0.00,,,0.00,meteohub,2013-03-15 15:39:00,
2013-03-15 08:44:00,57.7,56.7,30.04,NW,315,4.0,5.0,96,0.00,,,0.00,meteohub,2013-03-15 15:44:00,
2013-03-15 08:49:00,57.6,55.8,30.05,West,270,6.0,6.0,94,0.00,,,0.00,meteohub,2013-03-15 15:49:00,
2013-03-15 08:54:00,57.2,55.4,30.04,NW,315,4.0,5.0,94,0.00,,,0.00,meteohub,2013-03-15 15:54:00,
2013-03-15 08:59:00,57.2,55.4,30.05,North,0,2.0,6.0,94,0.00,,,0.00,meteohub,2013-03-15 15:59:00,
2013-03-15 09:04:00,57.4,55.6,30.05,NW,315,4.0,6.0,94,0.00,,,0.00,meteohub,2013-03-15 16:04:00,
2013-03-15 09:09:00,57.6,56.1,30.04,West,270,2.0,5.0,95,0.00,,,0.00,meteohub,2013-03-15 16:09:00,
2013-03-15 09:14:00,57.9,56.1,30.04,NW,315,3.0,4.0,94,0.00,,,0.00,meteohub,2013-03-15 16:14:00,
2013-03-15 09:19:00,57.9,56.1,30.04,NW,315,0.0,4.0,94,0.00,,,0.00,meteohub,2013-03-15 16:19:00,
2013-03-15 09:24:00,57.9,55.9,30.04,West,270,3.0,4.0,93,0.00,,,0.00,meteohub,2013-03-15 16:24:00,
2013-03-15 09:29:00,58.1,56.1,30.04,West,270,3.0,4.0,93,0.00,,,0.00,meteohub,2013-03-15 16:29:00,
2013-03-15 09:34:00,58.5,56.1,30.04,NW,315,3.0,4.0,92,0.00,,,0.00,meteohub,2013-03-15 16:34:00,
2013-03-15 09:39:00,59.7,56.8,30.04,SSW,203,3.0,5.0,90,0.00,,,0.00,meteohub,2013-03-15 16:39:00,
2013-03-15 09:44:00,61.2,57.6,30.05,SE,135,2.0,5.0,88,0.00,,,0.00,meteohub,2013-03-15 16:44:00,
2013-03-15 09:49:00,63.9,58.6,30.05,NW,315,3.0,5.0,83,0.00,,,0.00,meteohub,2013-03-15 16:49:00,
2013-03-15 09:54:00,66.0,58.3,30.05,NW,315,3.0,5.0,76,0.00,,,0.00,meteohub,2013-03-15 16:54:00,
2013-03-15 09:59:00,66.6,58.1,30.05,North,0,2.0,5.0,74,0.00,,,0.00,meteohub,2013-03-15 16:59:00,
2013-03-15 10:04:00,66.7,57.0,30.05,NW,315,4.0,5.0,71,0.00,,,0.00,meteohub,2013-03-15 17:04:00,
2013-03-15 10:09:00,66.4,57.0,30.06,North,0,3.0,5.0,72,0.00,,,0.00,meteohub,2013-03-15 17:09:00,
2013-03-15 10:14:00,64.9,55.8,30.06,NW,315,3.0,6.0,72,0.00,,,0.00,meteohub,2013-03-15 17:14:00,
2013-03-15 10:19:00,63.5,55.4,30.06,NW,315,3.0,7.0,75,0.00,,,0.00,meteohub,2013-03-15 17:19:00,
2013-03-15 10:54:00,61.9,55.6,30.06,West,270,9.0,9.0,80,0.00,,,0.00,meteohub,2013-03-15 17:54:00,
2013-03-15 10:59:00,61.7,55.8,30.06,West,270,8.0,8.0,81,0.00,,,0.00,meteohub,2013-03-15 17:59:00,
2013-03-15 11:04:00,61.5,55.9,30.06,West,270,8.0,9.0,82,0.00,,,0.00,meteohub,2013-03-15 18:04:00,
2013-03-15 11:09:00,61.0,55.8,30.06,NW,315,6.0,9.0,83,0.00,,,0.00,meteohub,2013-03-15 18:09:00,
2013-03-15 11:14:00,61.7,56.1,30.06,WNW,293,6.0,10.0,82,0.00,,,0.00,meteohub,2013-03-15 18:14:00,
2013-03-15 11:19:00,61.7,55.8,30.05,West,270,9.0,10.0,81,0.00,,,0.00,meteohub,2013-03-15 18:19:00,
2013-03-15 11:29:00,61.9,55.9,30.06,West,270,5.0,9.0,81,0.00,,,0.00,meteohub,2013-03-15 18:29:00,
2013-03-15 11:34:00,61.9,55.9,30.05,West,270,5.0,9.0,81,0.00,,,0.00,meteohub,2013-03-15 18:34:00,
2013-03-15 11:39:00,63.0,55.6,30.05,West,270,4.0,8.0,77,0.00,,,0.00,meteohub,2013-03-15 18:39:00,
2013-03-15 11:44:00,63.3,55.6,30.05,WNW,293,5.0,8.0,76,0.00,,,0.00,meteohub,2013-03-15 18:44:00,
2013-03-15 11:49:00,62.8,55.8,30.05,NW,315,6.0,8.0,78,0.00,,,0.00,meteohub,2013-03-15 18:49:00,
2013-03-15 11:54:00,63.7,56.7,30.05,West,270,6.0,9.0,78,0.00,,,0.00,meteohub,2013-03-15 18:54:00,
2013-03-15 11:59:00,64.9,55.8,30.04,WNW,293,8.0,11.0,72,0.00,,,0.00,meteohub,2013-03-15 18:59:00,
2013-03-15 12:04:00,64.9,55.4,30.04,WNW,293,8.0,11.0,71,0.00,,,0.00,meteohub,2013-03-15 19:04:00,
2013-03-15 12:09:00,64.8,55.6,30.04,WNW,293,8.0,8.0,72,0.00,,,0.00,meteohub,2013-03-15 19:09:00,
2013-03-15 12:14:00,64.6,55.8,30.04,NW,315,8.0,11.0,73,0.00,,,0.00,meteohub,2013-03-15 19:14:00,
2013-03-15 12:19:00,64.6,55.8,30.04,West,270,8.0,11.0,73,0.00,,,0.00,meteohub,2013-03-15 19:19:00,
2013-03-15 12:24:00,63.7,55.2,30.04,West,270,12.0,12.0,74,0.00,,,0.00,meteohub,2013-03-15 19:24:00,
2013-03-15 12:29:00,63.5,55.8,30.04,West,270,7.0,12.0,76,0.00,,,0.00,meteohub,2013-03-15 19:29:00,
2013-03-15 12:34:00,63.3,55.9,30.04,NW,315,9.0,12.0,77,0.00,,,0.00,meteohub,2013-03-15 19:34:00,
2013-03-15 12:39:00,63.5,55.8,30.03,WNW,293,8.0,12.0,76,0.00,,,0.00,meteohub,2013-03-15 19:39:00,
2013-03-15 12:44:00,63.5,55.8,30.03,West,270,9.0,11.0,76,0.00,,,0.00,meteohub,2013-03-15 19:44:00,
2013-03-15 12:49:00,63.1,55.4,30.03,NW,315,8.0,11.0,76,0.00,,,0.00,meteohub,2013-03-15 19:49:00,
2013-03-15 12:54:00,64.2,56.1,30.02,WNW,293,7.0,13.0,75,0.00,,,0.00,meteohub,2013-03-15 19:54:00,
2013-03-15 12:59:00,64.2,55.8,30.02,West,270,8.0,13.0,74,0.00,,,0.00,meteohub,2013-03-15 19:59:00,
2013-03-15 13:04:00,63.9,55.8,30.01,SW,225,11.0,13.0,75,0.00,,,0.00,meteohub,2013-03-15 20:04:00,
2013-03-15 13:09:00,63.7,55.6,30.01,NNW,338,8.0,12.0,75,0.00,,,0.00,meteohub,2013-03-15 20:09:00,
2013-03-15 13:14:00,63.5,55.8,30.01,NW,315,7.0,12.0,76,0.00,,,0.00,meteohub,2013-03-15 20:14:00,
2013-03-15 13:19:00,63.5,55.8,30.01,SW,225,8.0,12.0,76,0.00,,,0.00,meteohub,2013-03-15 20:19:00,
2013-03-15 13:24:00,63.1,55.4,30.01,WNW,293,11.0,11.0,76,0.00,,,0.00,meteohub,2013-03-15 20:24:00,
2013-03-15 13:29:00,63.3,55.6,30.01,West,270,9.0,11.0,76,0.00,,,0.00,meteohub,2013-03-15 20:29:00,
2013-03-15 13:34:00,63.5,55.8,30.01,NW,315,8.0,11.0,76,0.00,,,0.00,meteohub,2013-03-15 20:34:00,
2013-03-15 13:39:00,63.3,55.6,30.00,NW,315,13.0,13.0,76,0.00,,,0.00,meteohub,2013-03-15 20:39:00,
2013-03-15 13:44:00,63.0,55.2,30.00,NW,315,9.0,13.0,76,0.00,,,0.00,meteohub,2013-03-15 20:44:00,
2013-03-15 13:49:00,63.3,55.6,30.00,NW,315,8.0,13.0,76,0.00,,,0.00,meteohub,2013-03-15 20:49:00,
2013-03-15 13:54:00,63.3,55.6,30.00,West,270,12.0,13.0,76,0.00,,,0.00,meteohub,2013-03-15 20:54:00,
2013-03-15 13:59:00,63.3,54.9,30.00,West,270,10.0,13.0,74,0.00,,,0.00,meteohub,2013-03-15 20:59:00,
2013-03-15 14:04:00,62.8,54.7,30.00,West,270,11.0,12.0,75,0.00,,,0.00,meteohub,2013-03-15 21:04:00,
2013-03-15 14:09:00,62.8,55.0,30.00,NW,315,8.0,12.0,76,0.00,,,0.00,meteohub,2013-03-15 21:09:00,
2013-03-15 14:14:00,62.1,54.7,30.00,NW,315,9.0,13.0,77,0.00,,,0.00,meteohub,2013-03-15 21:14:00,
2013-03-15 14:19:00,62.2,54.9,29.99,NW,315,10.0,13.0,77,0.00,,,0.00,meteohub,2013-03-15 21:19:00,
2013-03-15 14:24:00,62.6,54.9,29.99,West,270,8.0,11.0,76,0.00,,,0.00,meteohub,2013-03-15 21:24:00,
2013-03-15 14:29:00,62.6,54.9,29.99,NW,315,8.0,11.0,76,0.00,,,0.00,meteohub,2013-03-15 21:29:00,
2013-03-15 14:34:00,62.1,54.7,29.99,WNW,293,13.0,13.0,77,0.00,,,0.00,meteohub,2013-03-15 21:34:00,
2013-03-15 14:39:00,61.9,54.9,29.99,West,270,10.0,13.0,78,0.00,,,0.00,meteohub,2013-03-15 21:39:00,
2013-03-15 14:44:00,61.9,55.2,29.99,West,270,9.0,13.0,79,0.00,,,0.00,meteohub,2013-03-15 21:44:00,
2013-03-15 14:49:00,62.2,55.2,29.99,NW,315,6.0,13.0,78,0.00,,,0.00,meteohub,2013-03-15 21:49:00,
2013-03-15 14:54:00,62.8,55.8,29.98,West,270,4.0,11.0,78,0.00,,,0.00,meteohub,2013-03-15 21:54:00,
2013-03-15 15:00:00,62.2,54.5,29.98,NW,315,11.0,11.0,76,0.00,,,0.00,meteohub,2013-03-15 22:00:00,
2013-03-15 15:05:00,62.1,55.0,29.98,West,270,7.0,11.0,78,0.00,,,0.00,meteohub,2013-03-15 22:05:00,
2013-03-15 15:10:00,61.9,54.9,29.98,NW,315,9.0,11.0,78,0.00,,,0.00,meteohub,2013-03-15 22:10:00,
2013-03-15 15:15:00,61.5,54.7,29.98,WNW,293,8.0,15.0,78,0.00,,,0.00,meteohub,2013-03-15 22:15:00,
2013-03-15 15:20:00,62.2,55.2,29.98,West,270,11.0,15.0,78,0.00,,,0.00,meteohub,2013-03-15 22:20:00,
2013-03-15 15:25:00,62.6,55.2,29.98,West,270,11.0,15.0,77,0.00,,,0.00,meteohub,2013-03-15 22:25:00,
2013-03-15 15:30:00,62.6,54.9,29.98,West,270,11.0,12.0,76,0.00,,,0.00,meteohub,2013-03-15 22:30:00,
2013-03-15 15:35:00,62.8,55.0,29.98,NW,315,9.0,12.0,76,0.00,,,0.00,meteohub,2013-03-15 22:35:00,
2013-03-15 15:40:00,63.0,55.2,29.99,West,270,7.0,11.0,76,0.00,,,0.00,meteohub,2013-03-15 22:40:00,
2013-03-15 15:45:00,62.8,55.0,29.98,NW,315,11.0,11.0,76,0.00,,,0.00,meteohub,2013-03-15 22:45:00,
2013-03-15 15:50:00,62.6,54.9,29.98,NW,315,14.0,14.0,76,0.00,,,0.00,meteohub,2013-03-15 22:50:00,
2013-03-15 15:55:00,61.7,54.5,29.99,WNW,293,9.0,12.0,77,0.00,,,0.00,meteohub,2013-03-15 22:55:00,
2013-03-15 16:00:00,61.5,54.3,29.98,West,270,11.0,14.0,77,0.00,,,0.00,meteohub,2013-03-15 23:00:00,
2013-03-15 16:05:00,61.5,54.7,29.98,NW,315,9.0,14.0,78,0.00,,,0.00,meteohub,2013-03-15 23:05:00,
2013-03-15 16:10:00,61.7,54.5,29.98,West,270,7.0,12.0,77,0.00,,,0.00,meteohub,2013-03-15 23:10:00,
2013-03-15 16:15:00,61.2,54.7,29.98,NW,315,8.0,12.0,79,0.00,,,0.00,meteohub,2013-03-15 23:15:00,
2013-03-15 16:20:00,61.0,54.5,29.98,West,270,7.0,12.0,79,0.00,,,0.00,meteohub,2013-03-15 23:20:00,
2013-03-15 16:25:00,61.2,54.7,29.98,NW,315,10.0,11.0,79,0.00,,,0.00,meteohub,2013-03-15 23:25:00,
2013-03-15 16:30:00,61.2,54.7,29.98,West,270,11.0,11.0,79,0.00,,,0.00,meteohub,2013-03-15 23:30:00,
2013-03-15 16:35:00,60.6,54.7,29.98,NW,315,9.0,11.0,81,0.00,,,0.00,meteohub,2013-03-15 23:35:00,
2013-03-15 16:40:00,60.4,54.9,29.98,West,270,8.0,11.0,82,0.00,,,0.00,meteohub,2013-03-15 23:40:00,
2013-03-15 16:45:00,60.1,54.5,29.98,West,270,9.0,11.0,82,0.00,,,0.00,meteohub,2013-03-15 23:45:00,
2013-03-15 16:50:00,60.4,54.9,29.98,NW,315,10.0,11.0,82,0.00,,,0.00,meteohub,2013-03-15 23:50:00,
2013-03-15 16:55:00,60.6,55.0,29.98,West,270,6.0,11.0,82,0.00,,,0.00,meteohub,2013-03-15 23:55:00,
2013-03-15 17:00:00,60.4,55.2,29.98,NW,315,7.0,11.0,83,0.00,,,0.00,meteohub,2013-03-16 00:00:00,
2013-03-15 17:05:00,59.7,54.9,29.98,WNW,293,9.0,11.0,84,0.00,,,0.00,meteohub,2013-03-16 00:05:00,
2013-03-15 17:10:00,59.5,55.0,29.98,WNW,293,11.0,11.0,85,0.00,,,0.00,meteohub,2013-03-16 00:10:00,
2013-03-15 17:15:00,58.6,54.9,29.98,WNW,293,9.0,11.0,87,0.00,,,0.00,meteohub,2013-03-16 00:15:00,
2013-03-15 17:20:00,57.9,54.7,29.97,NW,315,7.0,11.0,89,0.00,,,0.00,meteohub,2013-03-16 00:20:00,
2013-03-15 17:25:00,57.4,54.9,29.97,NW,315,5.0,11.0,91,0.00,,,0.00,meteohub,2013-03-16 00:25:00,
2013-03-15 17:30:00,57.6,55.2,29.97,West,270,9.0,11.0,92,0.00,,,0.00,meteohub,2013-03-16 00:30:00,
2013-03-15 17:35:00,57.4,55.4,29.97,WNW,293,9.0,11.0,93,0.00,,,0.00,meteohub,2013-03-16 00:35:00,
2013-03-15 17:40:00,57.2,55.2,29.97,North,0,6.0,11.0,93,0.00,,,0.00,meteohub,2013-03-16 00:40:00,
2013-03-15 17:45:00,56.7,55.0,29.97,West,270,7.0,11.0,94,0.00,,,0.00,meteohub,2013-03-16 00:45:00,
2013-03-15 17:50:00,56.5,55.4,29.97,SW,225,5.0,10.0,96,0.00,,,0.00,meteohub,2013-03-16 00:50:00,
2013-03-15 17:55:00,56.5,55.4,29.97,West,270,9.0,9.0,96,0.00,,,0.00,meteohub,2013-03-16 00:55:00,
2013-03-15 18:00:00,56.3,55.2,29.97,NW,315,9.0,9.0,96,0.00,,,0.00,meteohub,2013-03-16 01:00:00,
2013-03-15 18:05:00,55.9,55.0,29.97,NW,315,5.0,9.0,97,0.00,,,0.00,meteohub,2013-03-16 01:05:00,
2013-03-15 18:10:00,55.9,55.0,29.97,NW,315,7.0,9.0,97,0.00,,,0.00,meteohub,2013-03-16 01:10:00,
2013-03-15 18:15:00,55.9,55.0,29.97,NW,315,8.0,9.0,97,0.00,,,0.00,meteohub,2013-03-16 01:15:00,
2013-03-15 18:20:00,55.6,54.7,29.96,West,270,9.0,9.0,97,0.00,,,0.00,meteohub,2013-03-16 01:20:00,
2013-03-15 18:25:00,55.2,54.7,29.96,NW,315,7.0,9.0,98,0.00,,,0.00,meteohub,2013-03-16 01:25:00,
2013-03-15 18:30:00,54.7,54.3,29.96,WNW,293,6.0,9.0,99,0.00,,,0.00,meteohub,2013-03-16 01:30:00,
2013-03-15 18:35:00,54.7,54.3,29.96,West,270,7.0,9.0,99,0.00,,,0.00,meteohub,2013-03-16 01:35:00,
2013-03-15 18:40:00,54.5,54.1,29.96,WNW,293,8.0,8.0,99,0.00,,,0.00,meteohub,2013-03-16 01:40:00,
2013-03-15 18:45:00,54.3,54.0,29.96,West,270,5.0,8.0,99,0.00,,,0.00,meteohub,2013-03-16 01:45:00,
2013-03-15 18:51:00,54.3,54.0,29.97,NW,315,6.0,8.0,99,0.00,,,0.00,meteohub,2013-03-16 01:51:00,
2013-03-15 18:56:00,54.3,54.0,29.97,NW,315,7.0,8.0,99,0.00,,,0.00,meteohub,2013-03-16 01:56:00,
2013-03-15 19:01:00,54.3,54.0,29.97,NW,315,8.0,8.0,99,0.00,,,0.00,meteohub,2013-03-16 02:01:00,
2013-03-15 19:07:00,54.3,54.0,29.97,West,270,3.0,8.0,99,0.00,,,0.00,meteohub,2013-03-16 02:07:00,
2013-03-15 19:12:00,54.3,54.0,29.97,West,270,7.0,8.0,99,0.00,,,0.00,meteohub,2013-03-16 02:12:00,
2013-03-15 19:17:00,54.3,54.0,29.98,WNW,293,7.0,8.0,99,0.00,,,0.00,meteohub,2013-03-16 02:17:00,
2013-03-15 19:22:00,54.1,53.8,29.98,West,270,6.0,8.0,99,0.00,,,0.00,meteohub,2013-03-16 02:22:00,
2013-03-15 19:27:00,54.3,54.0,29.98,NW,315,4.0,8.0,99,0.00,,,0.00,meteohub,2013-03-16 02:27:00,
2013-03-15 19:32:00,54.5,54.1,29.99,West,270,8.0,8.0,99,0.00,,,0.00,meteohub,2013-03-16 02:32:00,
2013-03-15 19:37:00,54.5,54.1,29.99,West,270,5.0,8.0,99,0.00,,,0.00,meteohub,2013-03-16 02:37:00,
2013-03-15 19:42:00,54.5,54.1,29.98,WNW,293,8.0,8.0,99,0.00,,,0.00,meteohub,2013-03-16 02:42:00,
2013-03-15 19:47:00,54.5,54.1,29.98,NW,315,7.0,10.0,99,0.00,,,0.00,meteohub,2013-03-16 02:47:00,
2013-03-15 19:52:00,54.3,54.0,29.98,West,270,8.0,10.0,99,0.00,,,0.00,meteohub,2013-03-16 02:52:00,
2013-03-15 19:57:00,54.1,53.8,29.99,NW,315,5.0,10.0,99,0.00,,,0.00,meteohub,2013-03-16 02:57:00,
2013-03-15 20:02:00,54.1,53.8,29.99,NW,315,8.0,9.0,99,0.00,,,0.00,meteohub,2013-03-16 03:02:00,
2013-03-15 20:07:00,54.1,53.8,29.99,West,270,8.0,9.0,99,0.00,,,0.00,meteohub,2013-03-16 03:07:00,
2013-03-15 20:12:00,54.0,53.6,29.99,NW,315,7.0,10.0,99,0.00,,,0.00,meteohub,2013-03-16 03:12:00,
2013-03-15 20:17:00,54.0,53.6,29.99,NW,315,8.0,10.0,99,0.00,,,0.00,meteohub,2013-03-16 03:17:00,
2013-03-15 20:22:00,54.1,53.8,29.99,WNW,293,8.0,10.0,99,0.00,,,0.00,meteohub,2013-03-16 03:22:00,
2013-03-15 20:27:00,54.1,53.8,29.99,West,270,4.0,10.0,99,0.00,,,0.00,meteohub,2013-03-16 03:27:00,
2013-03-15 20:32:00,54.1,53.8,29.99,NW,315,7.0,9.0,99,0.00,,,0.00,meteohub,2013-03-16 03:32:00,
2013-03-15 20:37:00,54.1,53.8,29.99,NW,315,5.0,8.0,99,0.00,,,0.00,meteohub,2013-03-16 03:37:00,
2013-03-15 20:42:00,54.1,53.8,29.99,WNW,293,5.0,8.0,99,0.00,,,0.00,meteohub,2013-03-16 03:42:00,
2013-03-15 20:47:00,53.8,53.4,29.99,West,270,4.0,8.0,99,0.00,,,0.00,meteohub,2013-03-16 03:47:00,
2013-03-15 20:52:00,53.6,53.2,29.99,West,270,3.0,7.0,99,0.00,,,0.00,meteohub,2013-03-16 03:52:00,
2013-03-15 20:57:00,53.6,53.2,29.99,WNW,293,4.0,7.0,99,0.00,,,0.00,meteohub,2013-03-16 03:57:00,
2013-03-15 21:00:00,53.6,53.2,29.99,West,270,4.0,7.0,99,0.00,,,0.00,meteohub,2013-03-16 04:00:00,
2013-03-15 21:01:00,53.4,53.1,29.99,WNW,293,4.0,6.0,99,0.00,,,0.00,meteohub,2013-03-16 04:01:00,
2013-03-15 21:06:00,53.6,53.2,30.00,West,270,4.0,6.0,99,0.00,,,0.00,meteohub,2013-03-16 04:06:00,
2013-03-15 21:11:00,53.6,53.2,29.99,South,180,2.0,6.0,99,0.00,,,0.00,meteohub,2013-03-16 04:11:00,
2013-03-15 21:16:00,53.6,53.2,29.99,West,270,3.0,4.0,99,0.00,,,0.00,meteohub,2013-03-16 04:16:00,
2013-03-15 21:21:00,53.6,53.2,29.99,West,270,6.0,6.0,99,0.00,,,0.00,meteohub,2013-03-16 04:21:00,
2013-03-15 21:27:00,53.6,53.2,29.99,South,180,2.0,6.0,99,0.00,,,0.00,meteohub,2013-03-16 04:27:00,
2013-03-15 21:32:00,53.4,53.1,29.99,South,180,1.0,6.0,99,0.00,,,0.00,meteohub,2013-03-16 04:32:00,
2013-03-15 21:37:00,53.8,53.4,29.99,WSW,248,3.0,6.0,99,0.00,,,0.00,meteohub,2013-03-16 04:37:00,
2013-03-15 21:42:00,53.8,53.4,29.99,West,270,3.0,4.0,99,0.00,,,0.00,meteohub,2013-03-16 04:42:00,
2013-03-15 21:47:00,53.8,53.4,29.99,West,270,3.0,4.0,99,0.00,,,0.00,meteohub,2013-03-16 04:47:00,
2013-03-15 21:52:00,53.8,53.4,29.99,SW,225,4.0,6.0,99,0.00,,,0.00,meteohub,2013-03-16 04:52:00,
2013-03-15 21:57:00,53.8,53.4,29.99,West,270,4.0,6.0,99,0.00,,,0.00,meteohub,2013-03-16 04:57:00,
2013-03-15 22:02:00,53.8,53.4,29.99,West,270,3.0,6.0,99,0.00,,,0.00,meteohub,2013-03-16 05:02:00,
2013-03-15 22:07:00,54.0,53.6,29.99,South,180,4.0,6.0,99,0.00,,,0.00,meteohub,2013-03-16 05:07:00,
2013-03-15 22:12:00,53.8,53.4,29.99,West,270,3.0,6.0,99,0.00,,,0.00,meteohub,2013-03-16 05:12:00,
2013-03-15 22:17:00,53.8,53.4,29.99,NW,315,3.0,4.0,99,0.00,,,0.00,meteohub,2013-03-16 05:17:00,
2013-03-15 22:22:00,53.6,53.2,29.99,West,270,4.0,5.0,99,0.00,,,0.00,meteohub,2013-03-16 05:22:00,
2013-03-15 22:27:00,53.4,53.1,29.99,NW,315,5.0,5.0,99,0.00,,,0.00,meteohub,2013-03-16 05:27:00,
2013-03-15 22:32:00,53.6,53.2,29.99,West,270,5.0,6.0,99,0.00,,,0.00,meteohub,2013-03-16 05:32:00,
2013-03-15 22:37:00,53.6,53.2,29.99,West,270,4.0,8.0,99,0.00,,,0.00,meteohub,2013-03-16 05:37:00,
2013-03-15 22:42:00,53.4,53.1,29.99,WNW,293,5.0,8.0,99,0.00,,,0.00,meteohub,2013-03-16 05:42:00,
2013-03-15 22:47:00,53.6,53.2,29.99,West,270,5.0,8.0,99,0.00,,,0.00,meteohub,2013-03-16 05:47:00,
2013-03-15 22:52:00,53.4,53.1,29.99,West,270,4.0,7.0,99,0.00,,,0.00,meteohub,2013-03-16 05:52:00,
2013-03-15 22:57:00,53.4,53.1,29.99,West,270,6.0,6.0,99,0.00,,,0.00,meteohub,2013-03-16 05:57:00,
2013-03-15 23:02:00,53.2,52.9,29.99,West,270,6.0,8.0,99,0.00,,,0.00,meteohub,2013-03-16 06:02:00,
2013-03-15 23:07:00,53.2,52.9,29.99,West,270,5.0,8.0,99,0.00,,,0.00,meteohub,2013-03-16 06:07:00,
2013-03-15 23:12:00,53.2,52.9,29.99,West,270,6.0,8.0,99,0.00,,,0.00,meteohub,2013-03-16 06:12:00,
2013-03-15 23:17:00,53.2,52.9,29.99,West,270,3.0,8.0,99,0.00,,,0.00,meteohub,2013-03-16 06:17:00,
2013-03-15 23:22:00,53.2,52.9,29.99,West,270,4.0,8.0,99,0.00,,,0.00,meteohub,2013-03-16 06:22:00,
2013-03-15 23:27:00,53.2,52.9,29.99,West,270,3.0,6.0,99,0.00,,,0.00,meteohub,2013-03-16 06:27:00,
2013-03-15 23:32:00,53.2,52.9,29.99,West,270,5.0,5.0,99,0.00,,,0.00,meteohub,2013-03-16 06:32:00,
2013-03-15 23:37:00,53.2,52.9,29.99,West,270,4.0,5.0,99,0.00,,,0.00,meteohub,2013-03-16 06:37:00,
2013-03-15 23:42:00,53.1,52.7,29.98,WNW,293,4.0,5.0,99,0.00,,,0.00,meteohub,2013-03-16 06:42:00,
2013-03-15 23:47:00,53.1,52.7,29.98,West,270,4.0,6.0,99,0.00,,,0.00,meteohub,2013-03-16 06:47:00,
2013-03-15 23:52:00,53.1,52.7,29.98,West,270,4.0,6.0,99,0.00,,,0.00,meteohub,2013-03-16 06:52:00,
2013-03-15 23:57:00,53.1,52.7,29.98,WNW,293,1.0,6.0,99,0.00,,,0.00,meteohub,2013-03-16 06:57:00,